Terminal Aerodrome Forecast
Issued by NWS Topeka, KS

Home | Current Version | Previous Version | Text Only | Print | Product List | Glossary On
Versions: 1 2 3 4 5 6 7 8 9 10 11 12 13 14 15 16 17 18 19 20 21 22 23 24 25 26 27
000
FTUS43 KTOP 230154 AAA
TAFTOP
TAF AMD
KTOP 230154Z 2302/2324 33008KT P6SM BKN020
     FM230300 32004KT P6SM SKC
     FM231000 32004KT 3SM BR FEW200
      TEMPO 2310/2314 1SM BR
     FM231500 18006KT P6SM SCT150=

USA.gov is the U.S. government's official web portal to all federal, state and local government web resources and services.